Airfield :
LOGIN :

Register | Disclaimer

   EN    FR    IT 

 










Legend :    VFR   Marginal VFR   IFR   Intensive IFR   Very Intensive IFR
Visi :
Ceiling :
>= 8 km
>= 3000ft
5 to 8 km
1000 to 3000 ft
1500m to 5 km
500 to 1000 ft
800 to 1500m
200 to 500 ft
< 800m
< 200 ft
Symbols :   Thunderstorms  Fog  Heavy snow  Heavy precipitations  Wind > 20 kt
SIGMETs :     Misc.  Thunderstorms  Icing  Turbulence  Mountain Waves  Volcanic Ashes







- Airport Elevation : 219 ft
- IATA code : DNR
- Download approach charts


LFRD - Dinard

CURRENT METAR :
  • 231430Z AUTO 01009KT 9999 FEW029 OVC036 19/13 Q1025 TEMPO BKN008

EXPIRED METARs :
  • 231400Z AUTO 35007KT 320V030 9999 FEW029 20/14 Q1025 TEMPO BKN008
  • 231330Z AUTO 35005KT 330V040 9999 SCT033 19/13 Q1025 TEMPO BKN008
  • 231300Z AUTO 36008KT 9999 OVC031 19/13 Q1025 NOSIG
  • 231230Z AUTO 01010KT 9999 SCT031 19/13 Q1025 NOSIG
  • 231200Z AUTO 35008KT CAVOK 19/12 Q1025 NOSIG

TAF AMD TAF LFRD
Valid from the 23 at 13:00 until the 24 at 12:00 UTC


231309Z 2313/2412 35007KT 9999 BKN030
PROB30
TEMPO 2315/2318 BKN008
BECMG 2318/2320 2000 BR BKN002
BECMG 2407/2409 9999 NSW BKN005
BECMG 2409/2411 BKN015
ATIS : +33 2 99 16 81 50
No reported NOTAMs for that airfield.



MET'MAP, your aeronautical weather chart ! - Copyright ORBIFLY December 2007 - Disclaimer

ORBIFLY MET'MAP TEAM :

Programming & Development : Alexandra Zaïnal
Concept & Development : Baudouin d'Aumeries
Co-Development & Prog : Marc-Olivier Méhu
Technical & hardware support : Manuel Goepfert

Contact : metmap@orbifly.com




SOURCES & CREDITS :

   NOAA